sensor_id;sensor_type;location;lat;lon;timestamp;P1;durP1;ratioP1;P2;durP2;ratioP2
38591;SDS011;24356;48.460;11.450;2023-06-14T00:00:07;7.80;;;3.25;;
38591;SDS011;24356;48.460;11.450;2023-06-14T00:02:33;5.03;;;3.22;;
38591;SDS011;24356;48.460;11.450;2023-06-14T00:04:58;8.55;;;3.40;;
38591;SDS011;24356;48.460;11.450;2023-06-14T00:07:33;5.70;;;3.22;;
38591;SDS011;24356;48.460;11.450;2023-06-14T00:10:07;5.22;;;3.10;;
38591;SDS011;24356;48.460;11.450;2023-06-14T00:12:35;4.15;;;2.92;;
38591;SDS011;24356;48.460;11.450;2023-06-14T00:15:01;6.03;;;3.67;;
38591;SDS011;24356;48.460;11.450;2023-06-14T00:17:28;8.32;;;3.75;;
38591;SDS011;24356;48.460;11.450;2023-06-14T00:19:55;6.30;;;3.40;;
38591;SDS011;24356;48.460;11.450;2023-06-14T00:22:22;5.03;;;3.30;;
38591;SDS011;24356;48.460;11.450;2023-06-14T00:24:49;5.57;;;3.25;;
38591;SDS011;24356;48.460;11.450;2023-06-14T00:27:15;8.55;;;3.40;;
38591;SDS011;24356;48.460;11.450;2023-06-14T00:29:41;4.85;;;3.42;;
38591;SDS011;24356;48.460;11.450;2023-06-14T00:32:07;4.93;;;3.50;;
38591;SDS011;24356;48.460;11.450;2023-06-14T00:34:32;7.20;;;3.40;;
38591;SDS011;24356;48.460;11.450;2023-06-14T00:36:58;4.65;;;3.50;;
38591;SDS011;24356;48.460;11.450;2023-06-14T00:39:24;5.07;;;3.28;;
38591;SDS011;24356;48.460;11.450;2023-06-14T00:41:50;8.30;;;3.47;;
38591;SDS011;24356;48.460;11.450;2023-06-14T00:44:16;5.97;;;3.33;;
38591;SDS011;24356;48.460;11.450;2023-06-14T00:46:42;5.28;;;3.10;;
38591;SDS011;24356;48.460;11.450;2023-06-14T00:49:09;4.88;;;3.03;;
38591;SDS011;24356;48.460;11.450;2023-06-14T00:51:35;5.50;;;3.30;;
38591;SDS011;24356;48.460;11.450;2023-06-14T00:54:02;5.22;;;3.40;;
38591;SDS011;24356;48.460;11.450;2023-06-14T00:56:28;5.90;;;3.50;;
38591;SDS011;24356;48.460;11.450;2023-06-14T00:58:54;4.72;;;3.53;;
38591;SDS011;24356;48.460;11.450;2023-06-14T01:01:22;4.25;;;3.17;;
38591;SDS011;24356;48.460;11.450;2023-06-14T01:03:49;8.38;;;3.50;;
38591;SDS011;24356;48.460;11.450;2023-06-14T01:14:26;7.00;;;3.75;;
38591;SDS011;24356;48.460;11.450;2023-06-14T01:16:54;6.78;;;3.15;;
38591;SDS011;24356;48.460;11.450;2023-06-14T01:19:25;5.18;;;3.33;;
38591;SDS011;24356;48.460;11.450;2023-06-14T01:21:53;5.32;;;3.13;;
38591;SDS011;24356;48.460;11.450;2023-06-14T03:01:55;6.73;;;3.90;;
38591;SDS011;24356;48.460;11.450;2023-06-14T03:04:20;6.47;;;3.70;;
38591;SDS011;24356;48.460;11.450;2023-06-14T03:06:46;6.53;;;3.90;;
38591;SDS011;24356;48.460;11.450;2023-06-14T04:19:59;8.43;;;4.70;;
38591;SDS011;24356;48.460;11.450;2023-06-14T04:22:25;7.93;;;3.90;;
38591;SDS011;24356;48.460;11.450;2023-06-14T04:24:53;5.25;;;3.85;;
38591;SDS011;24356;48.460;11.450;2023-06-14T04:27:21;10.65;;;4.13;;
38591;SDS011;24356;48.460;11.450;2023-06-14T04:29:50;8.18;;;4.25;;
38591;SDS011;24356;48.460;11.450;2023-06-14T04:32:21;6.63;;;3.88;;
38591;SDS011;24356;48.460;11.450;2023-06-14T04:34:52;6.93;;;4.47;;
38591;SDS011;24356;48.460;11.450;2023-06-14T05:31:05;11.35;;;4.85;;
38591;SDS011;24356;48.460;11.450;2023-06-14T05:33:31;9.45;;;4.13;;
38591;SDS011;24356;48.460;11.450;2023-06-14T05:35:56;7.07;;;4.20;;
38591;SDS011;24356;48.460;11.450;2023-06-14T05:38:22;8.65;;;4.40;;
38591;SDS011;24356;48.460;11.450;2023-06-14T05:40:47;5.93;;;3.92;;
38591;SDS011;24356;48.460;11.450;2023-06-14T05:43:13;7.28;;;4.18;;
38591;SDS011;24356;48.460;11.450;2023-06-14T05:45:39;7.15;;;4.10;;
38591;SDS011;24356;48.460;11.450;2023-06-14T05:48:04;8.93;;;3.90;;
38591;SDS011;24356;48.460;11.450;2023-06-14T05:50:30;6.10;;;3.80;;
38591;SDS011;24356;48.460;11.450;2023-06-14T05:52:56;6.13;;;4.20;;
38591;SDS011;24356;48.460;11.450;2023-06-14T05:55:21;6.40;;;3.42;;
38591;SDS011;24356;48.460;11.450;2023-06-14T05:57:47;5.70;;;3.75;;
38591;SDS011;24356;48.460;11.450;2023-06-14T06:00:13;8.23;;;4.07;;
38591;SDS011;24356;48.460;11.450;2023-06-14T06:02:41;10.98;;;4.15;;
38591;SDS011;24356;48.460;11.450;2023-06-14T06:05:08;7.88;;;3.60;;
38591;SDS011;24356;48.460;11.450;2023-06-14T06:07:34;6.43;;;4.00;;
38591;SDS011;24356;48.460;11.450;2023-06-14T06:10:01;4.85;;;3.63;;
38591;SDS011;24356;48.460;11.450;2023-06-14T06:12:26;6.97;;;3.58;;
38591;SDS011;24356;48.460;11.450;2023-06-14T06:14:52;4.55;;;3.28;;
38591;SDS011;24356;48.460;11.450;2023-06-14T06:17:17;6.72;;;3.60;;
38591;SDS011;24356;48.460;11.450;2023-06-14T06:19:43;5.45;;;3.30;;
38591;SDS011;24356;48.460;11.450;2023-06-14T06:22:09;5.00;;;3.15;;
38591;SDS011;24356;48.460;11.450;2023-06-14T06:24:35;7.47;;;3.55;;
38591;SDS011;24356;48.460;11.450;2023-06-14T06:27:00;9.30;;;3.22;;
38591;SDS011;24356;48.460;11.450;2023-06-14T06:29:28;9.65;;;3.35;;
38591;SDS011;24356;48.460;11.450;2023-06-14T06:31:54;8.23;;;3.38;;
38591;SDS011;24356;48.460;11.450;2023-06-14T06:34:21;6.97;;;3.30;;
38591;SDS011;24356;48.460;11.450;2023-06-14T06:36:46;5.43;;;3.20;;
38591;SDS011;24356;48.460;11.450;2023-06-14T06:39:13;7.75;;;3.42;;
38591;SDS011;24356;48.460;11.450;2023-06-14T06:41:40;8.00;;;3.60;;
38591;SDS011;24356;48.460;11.450;2023-06-14T06:44:06;6.38;;;3.20;;
38591;SDS011;24356;48.460;11.450;2023-06-14T06:46:32;7.13;;;3.17;;
38591;SDS011;24356;48.460;11.450;2023-06-14T06:48:58;10.57;;;3.53;;
38591;SDS011;24356;48.460;11.450;2023-06-14T06:51:25;8.32;;;3.25;;
38591;SDS011;24356;48.460;11.450;2023-06-14T06:53:53;5.90;;;3.15;;
38591;SDS011;24356;48.460;11.450;2023-06-14T06:56:20;7.50;;;3.50;;
38591;SDS011;24356;48.460;11.450;2023-06-14T06:58:48;5.80;;;3.40;;
38591;SDS011;24356;48.460;11.450;2023-06-14T07:01:14;5.03;;;3.30;;
38591;SDS011;24356;48.460;11.450;2023-06-14T07:03:40;13.38;;;3.90;;
38591;SDS011;24356;48.460;11.450;2023-06-14T07:06:06;10.05;;;3.50;;
38591;SDS011;24356;48.460;11.450;2023-06-14T07:08:32;5.80;;;3.00;;
38591;SDS011;24356;48.460;11.450;2023-06-14T07:10:57;5.63;;;3.30;;
38591;SDS011;24356;48.460;11.450;2023-06-14T07:13:24;7.47;;;3.25;;
38591;SDS011;24356;48.460;11.450;2023-06-14T07:15:50;5.95;;;2.95;;
38591;SDS011;24356;48.460;11.450;2023-06-14T07:18:20;4.50;;;3.05;;
38591;SDS011;24356;48.460;11.450;2023-06-14T07:20:47;5.85;;;3.00;;
38591;SDS011;24356;48.460;11.450;2023-06-14T07:23:12;4.93;;;3.40;;
38591;SDS011;24356;48.460;11.450;2023-06-14T07:25:38;7.78;;;3.20;;
38591;SDS011;24356;48.460;11.450;2023-06-14T07:28:04;5.78;;;2.83;;
38591;SDS011;24356;48.460;11.450;2023-06-14T07:30:29;6.25;;;2.95;;
38591;SDS011;24356;48.460;11.450;2023-06-14T07:32:55;4.57;;;3.10;;
38591;SDS011;24356;48.460;11.450;2023-06-14T07:35:21;7.93;;;3.40;;
38591;SDS011;24356;48.460;11.450;2023-06-14T07:37:47;4.45;;;2.88;;
38591;SDS011;24356;48.460;11.450;2023-06-14T07:40:14;5.18;;;2.80;;
38591;SDS011;24356;48.460;11.450;2023-06-14T07:42:40;5.68;;;3.35;;
38591;SDS011;24356;48.460;11.450;2023-06-14T07:45:06;4.70;;;3.00;;
38591;SDS011;24356;48.460;11.450;2023-06-14T07:47:32;4.90;;;2.97;;
38591;SDS011;24356;48.460;11.450;2023-06-14T07:49:58;3.40;;;2.60;;
38591;SDS011;24356;48.460;11.450;2023-06-14T07:52:24;6.63;;;3.13;;
38591;SDS011;24356;48.460;11.450;2023-06-14T07:54:50;4.75;;;2.85;;
38591;SDS011;24356;48.460;11.450;2023-06-14T07:57:15;5.13;;;2.60;;
38591;SDS011;24356;48.460;11.450;2023-06-14T07:59:41;4.20;;;3.00;;
38591;SDS011;24356;48.460;11.450;2023-06-14T08:02:06;4.55;;;2.95;;
38591;SDS011;24356;48.460;11.450;2023-06-14T08:04:32;4.78;;;2.70;;
38591;SDS011;24356;48.460;11.450;2023-06-14T08:07:01;4.82;;;3.00;;
38591;SDS011;24356;48.460;11.450;2023-06-14T08:09:26;5.70;;;2.88;;
